createdAt,value
2017-05-24T00:02:11.934Z,14.70
2017-05-24T00:04:40.623Z,14.70
2017-05-24T00:07:08.188Z,14.60
2017-05-24T00:09:35.691Z,14.80
2017-05-24T00:12:03.252Z,14.70
2017-05-24T00:14:31.544Z,14.70
2017-05-24T00:17:00.192Z,14.60
2017-05-24T00:19:28.464Z,14.50
2017-05-24T00:21:55.973Z,14.50
2017-05-24T00:24:24.308Z,14.30
2017-05-24T00:26:51.812Z,14.20
2017-05-24T00:29:20.098Z,14.10
2017-05-24T00:31:47.632Z,14.10
2017-05-24T00:34:15.186Z,13.90
2017-05-24T00:36:42.731Z,14.00
2017-05-24T00:39:11.055Z,13.90
2017-05-24T00:41:38.603Z,13.80
2017-05-24T00:44:06.868Z,13.80
2017-05-24T00:46:34.399Z,13.80
2017-05-24T00:49:02.043Z,13.80
2017-05-24T00:51:29.875Z,13.70
2017-05-24T00:53:57.715Z,13.60
2017-05-24T00:56:25.276Z,13.70
2017-05-24T00:58:53.545Z,13.60
2017-05-24T01:01:21.090Z,13.60
2017-05-24T01:03:48.862Z,13.60
2017-05-24T01:06:17.241Z,13.50
2017-05-24T01:08:44.824Z,13.40
2017-05-24T01:11:12.361Z,13.50
2017-05-24T01:13:40.649Z,13.50
2017-05-24T01:16:08.176Z,13.50
2017-05-24T01:18:35.716Z,13.50
2017-05-24T01:21:03.983Z,13.40
2017-05-24T01:23:31.487Z,13.40
2017-05-24T01:25:59.043Z,13.40
2017-05-24T01:28:26.611Z,13.20
2017-05-24T01:30:54.141Z,13.30
2017-05-24T01:33:21.693Z,13.20
2017-05-24T01:35:49.283Z,13.10
2017-05-24T01:38:16.884Z,13.00
2017-05-24T01:40:44.420Z,12.90
2017-05-24T01:43:12.289Z,12.90
2017-05-24T01:45:40.587Z,12.80
2017-05-24T01:48:09.142Z,12.70
2017-05-24T01:50:36.676Z,12.70
2017-05-24T01:53:04.234Z,12.60
2017-05-24T01:55:31.787Z,12.50
2017-05-24T01:57:59.348Z,12.40
2017-05-24T02:00:27.680Z,12.30
2017-05-24T02:02:56.211Z,12.20
2017-05-24T02:05:24.045Z,12.20
2017-05-24T02:07:52.428Z,12.10
2017-05-24T02:10:19.927Z,12.10
2017-05-24T02:12:48.292Z,12.10
2017-05-24T02:15:16.935Z,12.10
2017-05-24T02:17:44.439Z,12.00
2017-05-24T02:20:12.771Z,12.00
2017-05-24T02:22:40.297Z,12.00
2017-05-24T02:25:08.580Z,12.00
2017-05-24T02:27:36.908Z,11.90
2017-05-24T02:30:05.266Z,11.90
2017-05-24T02:32:32.787Z,11.90
2017-05-24T02:35:01.059Z,11.80
2017-05-24T02:37:29.359Z,11.70
2017-05-24T02:39:57.135Z,11.60
2017-05-24T02:42:25.459Z,11.60
2017-05-24T02:44:53.806Z,11.60
2017-05-24T02:47:21.539Z,11.60
2017-05-24T02:49:49.039Z,11.70
2017-05-24T02:52:16.579Z,11.60
2017-05-24T02:54:44.166Z,11.60
2017-05-24T02:57:11.749Z,11.50
2017-05-24T02:59:39.368Z,11.40
2017-05-24T03:02:07.186Z,11.40
2017-05-24T03:04:35.485Z,11.30
2017-05-24T03:07:02.984Z,11.30
2017-05-24T03:09:31.600Z,11.20
2017-05-24T03:11:59.200Z,11.10
2017-05-24T03:14:27.761Z,11.10
2017-05-24T03:16:56.116Z,11.10
2017-05-24T03:19:23.617Z,11.00
2017-05-24T03:21:51.933Z,10.70
2017-05-24T03:24:20.539Z,10.60
2017-05-24T03:26:48.391Z,10.60
2017-05-24T03:29:15.917Z,10.60
2017-05-24T03:31:43.740Z,10.50
2017-05-24T03:34:12.401Z,10.60
2017-05-24T03:36:40.707Z,10.70
2017-05-24T03:39:08.287Z,10.70
2017-05-24T03:41:36.576Z,10.80
2017-05-24T03:44:04.872Z,10.90
2017-05-24T03:46:32.483Z,10.90
2017-05-24T03:49:00.001Z,11.00
2017-05-24T03:51:27.756Z,11.10
2017-05-24T03:53:56.137Z,11.20
2017-05-24T03:56:24.616Z,11.20
2017-05-24T03:58:52.186Z,11.10
2017-05-24T04:01:20.512Z,11.00
2017-05-24T04:03:48.057Z,11.00
2017-05-24T04:06:15.609Z,11.10
2017-05-24T04:08:43.180Z,11.20
2017-05-24T04:11:10.808Z,11.50
2017-05-24T04:13:38.330Z,11.70
2017-05-24T04:16:05.831Z,11.90
2017-05-24T04:18:34.165Z,11.90
2017-05-24T04:21:01.669Z,11.90
2017-05-24T04:23:29.253Z,11.70
2017-05-24T04:25:57.520Z,11.60
2017-05-24T04:28:25.863Z,11.50
2017-05-24T04:30:54.410Z,11.30
2017-05-24T04:33:21.908Z,11.30
2017-05-24T04:35:50.264Z,11.20
2017-05-24T04:38:17.760Z,11.20
2017-05-24T04:40:45.261Z,11.20
2017-05-24T04:43:13.580Z,11.30
2017-05-24T04:45:41.848Z,11.40
2017-05-24T04:48:10.181Z,11.50
2017-05-24T04:50:37.683Z,11.50
2017-05-24T04:53:05.239Z,11.50
2017-05-24T04:55:33.528Z,11.30
2017-05-24T04:58:01.842Z,11.00
2017-05-24T05:00:30.158Z,11.00
2017-05-24T05:02:58.473Z,11.20
2017-05-24T05:05:26.255Z,11.20
2017-05-24T05:07:54.589Z,11.50
2017-05-24T05:10:22.855Z,11.60
2017-05-24T05:12:51.237Z,12.00
2017-05-24T05:15:18.772Z,12.00
2017-05-24T05:17:47.080Z,12.60
2017-05-24T05:20:15.409Z,12.60
2017-05-24T05:22:43.673Z,12.50
2017-05-24T05:25:11.989Z,12.90
2017-05-24T05:27:40.520Z,13.40
2017-05-24T05:30:08.019Z,13.40
2017-05-24T05:32:35.590Z,13.60
2017-05-24T05:35:03.855Z,16.90
2017-05-24T05:37:32.160Z,18.40
2017-05-24T05:39:59.661Z,18.40
2017-05-24T05:42:27.925Z,19.50
2017-05-24T05:44:56.222Z,19.50
2017-05-24T05:47:24.051Z,19.50
2017-05-24T05:49:51.596Z,19.70
2017-05-24T05:52:19.089Z,19.10
2017-05-24T05:54:46.592Z,18.10
2017-05-24T05:57:14.888Z,15.80
2017-05-24T05:59:42.452Z,15.80
2017-05-24T06:02:10.812Z,14.50
2017-05-24T06:04:39.099Z,13.90
2017-05-24T06:07:07.369Z,13.80
2017-05-24T06:09:35.653Z,13.20
2017-05-24T06:12:03.932Z,12.90
2017-05-24T06:14:31.475Z,12.90
2017-05-24T06:16:59.781Z,12.40
2017-05-24T06:19:28.076Z,12.30
2017-05-24T06:21:57.679Z,12.30
2017-05-24T06:24:25.473Z,12.40
2017-05-24T06:26:53.294Z,12.70
2017-05-24T06:29:21.848Z,14.10
2017-05-24T06:31:49.349Z,14.00
2017-05-24T06:34:17.173Z,14.70
2017-05-24T06:36:45.455Z,16.10
2017-05-24T06:39:12.983Z,16.10
2017-05-24T06:41:41.269Z,15.70
2017-05-24T06:44:09.536Z,14.70
2017-05-24T06:46:37.059Z,14.70
2017-05-24T06:49:04.795Z,13.90
2017-05-24T06:51:32.368Z,13.90
2017-05-24T06:54:00.904Z,13.20
2017-05-24T06:56:28.403Z,13.10
2017-05-24T06:58:55.929Z,13.20
2017-05-24T07:01:23.679Z,13.80
2017-05-24T07:03:51.443Z,13.20
2017-05-24T07:06:19.012Z,12.70
2017-05-24T07:08:47.300Z,12.30
2017-05-24T07:11:15.585Z,12.00
2017-05-24T07:13:43.089Z,12.00
2017-05-24T07:16:11.692Z,12.30
2017-05-24T07:18:40.272Z,12.00
2017-05-24T07:21:08.535Z,12.00
2017-05-24T07:23:36.089Z,12.00
2017-05-24T07:26:04.356Z,12.10
2017-05-24T07:28:32.687Z,12.00
2017-05-24T07:31:00.216Z,12.00
2017-05-24T07:33:28.796Z,12.20
2017-05-24T07:35:56.321Z,12.20
2017-05-24T07:38:24.608Z,13.10
2017-05-24T07:40:52.136Z,13.10
2017-05-24T07:43:19.939Z,13.50
2017-05-24T07:45:48.311Z,13.40
2017-05-24T07:48:16.189Z,13.40
2017-05-24T07:50:43.716Z,13.70
2017-05-24T07:53:11.259Z,13.80
2017-05-24T07:55:39.567Z,12.70
2017-05-24T07:58:07.873Z,12.60
2017-05-24T08:00:35.367Z,12.60
2017-05-24T08:03:02.939Z,12.70
2017-05-24T08:05:31.249Z,12.80
2017-05-24T08:07:58.805Z,12.80
2017-05-24T08:10:26.356Z,12.60
2017-05-24T08:12:53.888Z,13.20
2017-05-24T08:15:21.732Z,13.70
2017-05-24T08:17:49.229Z,13.70
2017-05-24T08:20:16.818Z,13.50
2017-05-24T08:22:45.090Z,13.00
2017-05-24T08:25:12.636Z,13.00
2017-05-24T08:27:40.160Z,13.00
2017-05-24T08:30:07.690Z,13.00
2017-05-24T08:32:35.533Z,12.90
2017-05-24T08:35:03.256Z,12.90
2017-05-24T08:37:31.065Z,12.90
2017-05-24T08:39:59.318Z,12.70
2017-05-24T08:42:27.872Z,12.80
2017-05-24T08:44:56.196Z,13.00
2017-05-24T08:47:24.463Z,13.10
2017-05-24T08:49:52.029Z,13.00
2017-05-24T08:52:20.299Z,12.80
2017-05-24T08:54:48.583Z,12.70
2017-05-24T08:57:16.083Z,12.70
2017-05-24T08:59:43.627Z,13.00
2017-05-24T09:02:11.140Z,13.60
2017-05-24T09:04:38.911Z,13.90
2017-05-24T09:07:06.522Z,13.80
2017-05-24T09:09:34.038Z,13.50
2017-05-24T09:12:01.608Z,13.70
2017-05-24T09:14:29.123Z,13.80
2017-05-24T09:16:58.788Z,13.80
2017-05-24T09:19:26.420Z,13.90
2017-05-24T09:21:53.948Z,13.90
2017-05-24T09:24:21.472Z,14.10
2017-05-24T09:26:49.572Z,14.30
2017-05-24T09:29:17.171Z,14.40
2017-05-24T09:31:44.940Z,14.70
2017-05-24T09:34:12.519Z,14.50
2017-05-24T09:36:40.830Z,13.90
2017-05-24T09:39:08.328Z,13.90
2017-05-24T09:41:35.852Z,13.50
2017-05-24T09:44:03.427Z,13.20
2017-05-24T09:46:30.944Z,13.40
2017-05-24T09:48:58.444Z,13.40
2017-05-24T09:51:26.784Z,13.30
2017-05-24T09:53:54.310Z,13.20
2017-05-24T09:56:21.815Z,13.50
2017-05-24T09:58:49.425Z,14.10
2017-05-24T10:01:17.732Z,14.30
2017-05-24T10:03:45.299Z,14.30
2017-05-24T10:06:12.802Z,14.90
2017-05-24T10:08:41.144Z,15.10
2017-05-24T10:11:09.673Z,15.10
2017-05-24T10:13:37.956Z,15.00
2017-05-24T10:16:06.570Z,15.30
2017-05-24T10:18:34.833Z,15.00
2017-05-24T10:21:03.140Z,14.40
2017-05-24T10:23:31.676Z,13.70
2017-05-24T10:25:59.524Z,13.60
2017-05-24T10:28:27.076Z,13.20
2017-05-24T10:30:55.345Z,13.20
2017-05-24T10:33:22.866Z,13.20
2017-05-24T10:35:50.388Z,13.40
2017-05-24T10:38:17.927Z,14.00
2017-05-24T10:40:51.335Z,14.40
2017-05-24T10:43:19.648Z,14.30
2017-05-24T10:45:48.174Z,14.40
2017-05-24T10:48:15.757Z,14.40
2017-05-24T10:50:43.260Z,14.80
2017-05-24T10:53:11.556Z,14.80
2017-05-24T10:55:39.843Z,14.90
2017-05-24T10:58:08.209Z,15.00
2017-05-24T11:00:35.737Z,15.00
2017-05-24T11:03:04.071Z,14.40
2017-05-24T11:05:31.644Z,14.40
2017-05-24T11:07:59.146Z,14.30
2017-05-24T11:10:27.447Z,14.70
2017-05-24T11:12:54.986Z,14.70
2017-05-24T11:15:22.516Z,14.90
2017-05-24T11:17:50.878Z,14.90
2017-05-24T11:20:18.383Z,14.90
2017-05-24T11:22:46.691Z,15.20
2017-05-24T11:25:14.228Z,15.10
2017-05-24T11:27:41.975Z,15.20
2017-05-24T11:30:10.262Z,15.00
2017-05-24T11:32:38.525Z,14.90
2017-05-24T11:35:06.282Z,14.80
2017-05-24T11:37:34.586Z,14.80
2017-05-24T11:40:02.453Z,14.80
2017-05-24T11:42:29.997Z,14.60
2017-05-24T11:44:57.531Z,14.50
2017-05-24T11:47:25.882Z,14.50
2017-05-24T11:49:54.151Z,14.80
2017-05-24T11:52:22.780Z,15.60
2017-05-24T11:54:51.055Z,16.10
2017-05-24T11:57:19.390Z,16.00
2017-05-24T11:59:46.969Z,16.00
2017-05-24T12:02:14.848Z,16.00
2017-05-24T12:04:42.377Z,16.20
2017-05-24T12:07:09.896Z,16.30
2017-05-24T12:09:38.545Z,16.10
2017-05-24T12:12:07.228Z,16.40
2017-05-24T12:14:35.531Z,16.60
2017-05-24T12:17:03.852Z,16.60
2017-05-24T12:19:32.124Z,16.40
2017-05-24T12:21:59.721Z,16.40
2017-05-24T12:24:28.291Z,15.70
2017-05-24T12:26:56.056Z,15.70
2017-05-24T12:29:23.924Z,15.60
2017-05-24T12:31:51.784Z,15.60
2017-05-24T12:34:19.689Z,15.60
2017-05-24T12:36:47.184Z,15.70
2017-05-24T12:39:15.492Z,16.50
2017-05-24T12:41:43.812Z,16.70
2017-05-24T12:44:12.121Z,16.90
2017-05-24T12:46:39.637Z,16.90
2017-05-24T12:49:07.951Z,16.10
2017-05-24T12:51:36.573Z,15.70
2017-05-24T12:54:04.108Z,15.70
2017-05-24T12:56:31.612Z,15.60
2017-05-24T12:58:59.900Z,16.30
2017-05-24T13:01:28.517Z,16.40
2017-05-24T13:03:56.072Z,16.40
2017-05-24T13:06:24.384Z,15.80
2017-05-24T13:08:52.680Z,15.70
2017-05-24T13:11:20.248Z,15.70
2017-05-24T13:13:48.045Z,15.50
2017-05-24T13:16:15.565Z,15.40
2017-05-24T13:18:43.859Z,15.40
2017-05-24T13:21:12.153Z,15.90
2017-05-24T13:23:40.460Z,16.10
2017-05-24T13:26:09.109Z,16.10
2017-05-24T13:28:37.379Z,15.80
2017-05-24T13:31:05.648Z,15.70
2017-05-24T13:33:33.175Z,15.70
2017-05-24T13:36:01.690Z,15.50
2017-05-24T13:38:29.302Z,15.60
2017-05-24T13:40:56.865Z,15.50
2017-05-24T13:43:25.180Z,15.50
2017-05-24T13:45:52.676Z,15.50
2017-05-24T13:48:20.455Z,15.40
2017-05-24T13:50:47.996Z,15.30
2017-05-24T13:53:15.496Z,15.30
2017-05-24T13:55:43.280Z,15.40
2017-05-24T13:58:11.598Z,15.40
2017-05-24T14:00:39.422Z,15.40
2017-05-24T14:03:06.968Z,15.40
2017-05-24T14:05:35.240Z,15.20
2017-05-24T14:08:03.116Z,15.20
2017-05-24T14:10:30.615Z,15.20
2017-05-24T14:12:59.253Z,14.90
2017-05-24T14:15:27.563Z,14.90
2017-05-24T14:17:55.895Z,14.90
2017-05-24T14:20:24.172Z,14.80
2017-05-24T14:22:51.711Z,14.80
2017-05-24T14:25:19.308Z,14.90
2017-05-24T14:27:46.884Z,15.20
2017-05-24T14:30:15.163Z,15.40
2017-05-24T14:32:43.709Z,15.70
2017-05-24T14:35:12.114Z,16.00
2017-05-24T14:37:40.417Z,15.80
2017-05-24T14:40:09.039Z,15.70
2017-05-24T14:42:37.624Z,15.50
2017-05-24T14:45:05.387Z,15.40
2017-05-24T14:47:33.707Z,14.60
2017-05-24T14:50:01.268Z,14.60
2017-05-24T14:52:28.795Z,14.60
2017-05-24T14:54:56.852Z,14.40
2017-05-24T14:57:24.408Z,14.10
2017-05-24T14:59:51.965Z,13.90
2017-05-24T15:02:19.505Z,13.90
2017-05-24T15:04:47.343Z,13.80
2017-05-24T15:07:14.847Z,13.70
2017-05-24T15:09:42.372Z,13.80
2017-05-24T15:12:10.160Z,13.80
2017-05-24T15:14:38.424Z,13.80
2017-05-24T15:17:05.991Z,13.70
2017-05-24T15:19:33.497Z,13.80
2017-05-24T15:22:01.784Z,13.90
2017-05-24T15:24:29.306Z,13.90
2017-05-24T15:26:56.827Z,13.90
2017-05-24T15:29:24.360Z,13.90
2017-05-24T15:31:51.940Z,13.80
2017-05-24T15:34:19.440Z,13.70
2017-05-24T15:36:46.992Z,13.70
2017-05-24T15:39:14.864Z,13.70
2017-05-24T15:41:42.358Z,13.60
2017-05-24T15:44:09.921Z,13.50
2017-05-24T15:46:37.419Z,13.50
2017-05-24T15:49:05.015Z,13.60
2017-05-24T15:51:32.548Z,13.80
2017-05-24T15:54:00.557Z,14.30
2017-05-24T15:56:28.846Z,14.80
2017-05-24T15:58:57.112Z,14.80
2017-05-24T16:01:24.892Z,14.80
2017-05-24T16:03:52.473Z,14.60
2017-05-24T16:06:20.803Z,15.00
2017-05-24T16:08:48.326Z,14.90
2017-05-24T16:11:15.847Z,14.80
2017-05-24T16:13:43.379Z,14.60
2017-05-24T16:16:10.915Z,14.60
2017-05-24T16:18:39.184Z,14.10
2017-05-24T16:21:07.458Z,13.90
2017-05-24T16:23:35.768Z,13.70
2017-05-24T16:26:03.526Z,13.70
2017-05-24T16:28:31.048Z,13.60
2017-05-24T16:30:59.336Z,13.50
2017-05-24T16:33:26.912Z,13.50
2017-05-24T16:35:54.468Z,13.40
2017-05-24T16:38:22.329Z,13.40
2017-05-24T16:40:49.865Z,13.40
2017-05-24T16:43:17.772Z,13.30
2017-05-24T16:45:46.099Z,13.30
2017-05-24T16:48:14.365Z,13.10
2017-05-24T16:50:41.941Z,13.10
2017-05-24T16:53:09.468Z,13.00
2017-05-24T16:55:37.024Z,13.00
2017-05-24T16:58:04.600Z,13.00
2017-05-24T17:00:32.137Z,13.00
2017-05-24T17:02:59.728Z,12.90
2017-05-24T17:05:27.270Z,13.00
2017-05-24T17:07:55.585Z,12.90
2017-05-24T17:10:23.088Z,12.90
2017-05-24T17:12:50.921Z,12.90
2017-05-24T17:15:18.437Z,13.00
2017-05-24T17:17:45.956Z,13.00
2017-05-24T17:20:13.505Z,13.00
2017-05-24T17:22:41.165Z,13.00
2017-05-24T17:25:08.720Z,13.00
2017-05-24T17:27:36.277Z,12.90
2017-05-24T17:30:03.854Z,12.80
2017-05-24T17:32:32.172Z,12.80
2017-05-24T17:35:00.475Z,12.80
2017-05-24T17:37:28.016Z,12.80
2017-05-24T17:39:55.569Z,12.80
2017-05-24T17:42:23.068Z,12.60
2017-05-24T17:44:50.652Z,12.50
2017-05-24T17:47:18.179Z,12.40
2017-05-24T17:49:45.680Z,12.30
2017-05-24T17:52:13.302Z,12.30
2017-05-24T17:54:40.807Z,12.20
2017-05-24T17:57:09.416Z,12.00
2017-05-24T17:59:36.916Z,12.00
2017-05-24T18:02:04.440Z,11.90
2017-05-24T18:04:32.008Z,11.80
2017-05-24T18:06:59.571Z,11.80
2017-05-24T18:09:27.852Z,11.70
2017-05-24T18:11:55.475Z,11.70
2017-05-24T18:14:23.801Z,11.70
2017-05-24T18:16:52.072Z,11.70
2017-05-24T18:19:19.894Z,11.70
2017-05-24T18:21:47.763Z,11.60
2017-05-24T18:24:15.286Z,11.70
2017-05-24T18:26:43.900Z,11.70
2017-05-24T18:29:12.233Z,11.80
2017-05-24T18:31:39.745Z,11.70
2017-05-24T18:34:07.247Z,11.70
2017-05-24T18:36:35.049Z,11.70
2017-05-24T18:39:03.036Z,11.60
2017-05-24T18:41:30.601Z,11.60
2017-05-24T18:43:58.124Z,11.50
2017-05-24T18:46:25.687Z,11.60
2017-05-24T18:48:53.217Z,11.50
2017-05-24T18:51:20.780Z,11.50
2017-05-24T18:53:48.313Z,11.50
2017-05-24T18:56:16.126Z,11.50
2017-05-24T18:58:44.451Z,11.60
2017-05-24T19:01:11.991Z,11.60
2017-05-24T19:03:39.507Z,11.60
2017-05-24T19:06:07.792Z,11.60
2017-05-24T19:08:36.080Z,11.60
2017-05-24T19:11:04.348Z,11.60
2017-05-24T19:13:34.207Z,11.50
2017-05-24T19:16:02.108Z,11.50
2017-05-24T19:18:29.864Z,11.50
2017-05-24T19:20:57.488Z,11.60
2017-05-24T19:23:25.824Z,11.60
2017-05-24T19:25:54.147Z,11.70
2017-05-24T19:28:22.420Z,11.60
2017-05-24T19:30:52.655Z,11.60
2017-05-24T19:33:20.936Z,11.70
2017-05-24T19:35:49.777Z,11.70
2017-05-24T19:38:18.279Z,11.70
2017-05-24T19:40:46.690Z,11.60
2017-05-24T19:43:14.267Z,11.60
2017-05-24T19:45:41.771Z,11.70
2017-05-24T19:48:09.547Z,11.70
2017-05-24T19:50:37.366Z,11.60
2017-05-24T19:53:05.967Z,11.50
2017-05-24T19:55:33.781Z,11.50
2017-05-24T19:58:02.395Z,11.30
2017-05-24T20:00:30.130Z,11.20
2017-05-24T20:02:58.527Z,11.10
2017-05-24T20:05:26.281Z,11.10
2017-05-24T20:07:54.633Z,11.30
2017-05-24T20:10:23.159Z,11.20
2017-05-24T20:12:52.959Z,11.10
2017-05-24T20:15:22.118Z,11.10
2017-05-24T20:17:51.243Z,11.00
2017-05-24T20:20:22.808Z,10.90
2017-05-24T20:22:53.103Z,10.90
2017-05-24T20:25:25.638Z,10.90
2017-05-24T20:27:54.694Z,10.90
2017-05-24T20:30:24.614Z,10.90
2017-05-24T20:32:54.859Z,10.90
2017-05-24T20:35:23.673Z,10.90
2017-05-24T20:37:54.354Z,11.00
2017-05-24T20:40:24.252Z,10.90
2017-05-24T20:42:52.604Z,11.00
2017-05-24T20:45:20.976Z,11.00
2017-05-24T20:47:51.044Z,11.00
2017-05-24T20:50:21.131Z,11.00
2017-05-24T20:52:50.690Z,10.90
2017-05-24T20:55:19.169Z,10.90
2017-05-24T20:57:46.848Z,10.90
2017-05-24T21:00:17.251Z,11.00
2017-05-24T21:02:46.722Z,10.90
2017-05-24T21:05:16.260Z,11.00
2017-05-24T21:07:45.985Z,11.00
2017-05-24T21:10:15.646Z,11.00
2017-05-24T21:12:46.027Z,10.90
2017-05-24T21:15:16.921Z,10.90
2017-05-24T21:17:46.864Z,10.90
2017-05-24T21:20:16.674Z,10.90
2017-05-24T21:22:45.464Z,10.90
2017-05-24T21:25:14.658Z,10.90
2017-05-24T21:27:44.938Z,10.90
2017-05-24T21:30:15.303Z,10.90
2017-05-24T21:32:45.306Z,10.90
2017-05-24T21:35:15.609Z,10.90
2017-05-24T21:37:45.115Z,10.70
2017-05-24T21:40:14.122Z,10.70
2017-05-24T21:42:47.962Z,10.60
2017-05-24T21:45:16.229Z,10.50
2017-05-24T21:47:43.770Z,10.50
2017-05-24T21:50:11.312Z,10.50
2017-05-24T21:52:39.922Z,10.60
2017-05-24T21:55:08.282Z,10.70
2017-05-24T21:57:36.643Z,10.70
2017-05-24T22:00:04.224Z,10.70
2017-05-24T22:02:31.723Z,10.70
2017-05-24T22:04:59.250Z,10.70
2017-05-24T22:07:26.818Z,10.70
2017-05-24T22:09:55.081Z,10.70
2017-05-24T22:12:22.605Z,10.70
2017-05-24T22:14:50.202Z,10.70
2017-05-24T22:17:17.732Z,10.70
2017-05-24T22:19:45.996Z,10.80
2017-05-24T22:22:13.527Z,10.70
2017-05-24T22:24:41.085Z,10.70
2017-05-24T22:27:08.648Z,10.70
2017-05-24T22:29:36.935Z,10.80
2017-05-24T22:32:04.507Z,10.70
2017-05-24T22:34:32.024Z,10.70
2017-05-24T22:36:59.569Z,10.70
2017-05-24T22:39:27.104Z,10.60
2017-05-24T22:41:55.369Z,10.70
2017-05-24T22:44:22.874Z,10.60
2017-05-24T22:46:51.164Z,10.70
2017-05-24T22:49:18.720Z,10.70
2017-05-24T22:51:46.524Z,10.60
2017-05-24T22:54:14.029Z,10.60
2017-05-24T22:56:41.557Z,10.60
2017-05-24T22:59:09.842Z,10.60
2017-05-24T23:01:37.401Z,10.60
2017-05-24T23:04:04.955Z,10.60
2017-05-24T23:06:32.467Z,10.60
2017-05-24T23:09:00.752Z,10.60
2017-05-24T23:11:29.065Z,10.50
2017-05-24T23:13:56.639Z,10.50
2017-05-24T23:16:24.140Z,10.50
2017-05-24T23:18:52.727Z,10.50
2017-05-24T23:21:20.239Z,10.50
2017-05-24T23:23:47.787Z,10.40
2017-05-24T23:26:15.287Z,10.40
2017-05-24T23:28:43.165Z,10.40
2017-05-24T23:31:10.744Z,10.40
2017-05-24T23:33:39.045Z,10.50
2017-05-24T23:36:07.575Z,10.40
2017-05-24T23:38:35.364Z,10.40
2017-05-24T23:41:03.126Z,10.40
2017-05-24T23:43:30.864Z,10.40
2017-05-24T23:45:59.274Z,10.40
2017-05-24T23:48:27.597Z,10.40
2017-05-24T23:50:55.379Z,10.40
2017-05-24T23:53:22.899Z,10.30
2017-05-24T23:55:50.423Z,10.30
2017-05-24T23:58:17.944Z,10.20
